Terminal Aerodrome Forecast
Issued by NWS

Home | Current Version | Previous Version | Text Only | Print | Product List | Glossary On
Versions: 1 2 3 4 5 6 7 8 9 10 11 12 13 14 15 16 17 18 19
000
FTUS42 KFFC 221722
TAFRYY
TAF
KRYY 221722Z 2218/2318 20008KT P6SM BKN050
     FM230100 15003KT P6SM SCT080
     FM230900 13004KT 5SM BR BKN015
     FM231000 15006KT 4SM BR BKN005
     FM231500 17008KT P6SM BKN015=

USA.gov is the U.S. government's official web portal to all federal, state and local government web resources and services.